Time;durP1;ratioP1;P1;durP2;ratioP2;P2;SDS_P1;SDS_P2;PMS_P1;PMS_P2;Temp;Humidity;BMP_temperature;BMP_pressure;BME280_temperature;BME280_humidity;BME280_pressure;Samples;Min_cycle;Max_cycle;Signal;HPM_P1;HPM_P2
2022/01/02 00:02:31;;;;;;;;;;;;;;;;;;4206282;28;2166;-62
2022/01/02 00:04:51;;;;;;;;;;;;;;;;;;4206133;28;1012;-62
2022/01/02 00:07:11;;;;;;;;;;;;;;;;;;4206251;28;981;-62
2022/01/02 00:09:32;;;;;;;;;;;;;;;;;;4216470;28;838;-62
2022/01/02 00:11:52;;;;;;;;;;;;;;;;;;4223199;28;859;-63
2022/01/02 00:14:13;;;;;;;;;;;;;;;;;;4220489;28;941;-62
2022/01/02 00:16:37;;;;;;;;;;;;;;;;;;4222183;28;1312;-62
2022/01/02 00:19:06;;;;;;;;;;;;;;;;;;4221726;28;1698;-62
2022/01/02 00:21:29;;;;;;;;;;;;;;;;;;4215536;28;2043;-62
2022/01/02 00:23:58;;;;;;;;;;;;;;;;;;4222131;28;1737;-62
2022/01/02 00:26:19;;;;;;;;;;;;;;;;;;4205822;28;979;-62
2022/01/02 00:28:39;;;;;;;;;;;;;;;;;;4195260;28;1797;-62
2022/01/02 00:30:59;;;;;;;;;;;;;;;;;;4205158;28;1125;-62
2022/01/02 00:33:20;;;;;;;;;;;;;;;;;;4205785;28;1883;-62
2022/01/02 00:35:40;;;;;;;;;;;;;;;;;;4205994;28;1029;-62
2022/01/02 00:38:00;;;;;;;;;;;;;;;;;;4190359;28;1094;-62
2022/01/02 00:40:21;;;;;;;;;;;;;;;;;;4205559;28;1010;-63
2022/01/02 00:42:41;;;;;;;;;;;;;;;;;;4205676;28;1197;-62
2022/01/02 00:45:02;;;;;;;;;;;;;;;;;;4205806;28;1117;-62
2022/01/02 00:47:22;;;;;;;;;;;;;;;;;;4205963;28;1322;-62
2022/01/02 00:49:43;;;;;;;;;;;;;;;;;;4205620;28;1187;-62
2022/01/02 00:52:04;;;;;;;;;;;;;;;;;;4205831;28;866;-62
2022/01/02 00:54:27;;;;;;;;;;;;;;;;;;4190433;28;1257;-62
2022/01/02 00:56:47;;;;;;;;;;;;;;;;;;4188673;28;977;-62
2022/01/02 00:59:08;;;;;;;;;;;;;;;;;;4205532;28;1050;-62
2022/01/02 01:01:28;;;;;;;;;;;;;;;;;;4190495;28;1093;-62
2022/01/02 01:03:48;;;;;;;;;;;;;;;;;;4206044;28;979;-62
2022/01/02 01:06:08;;;;;;;;;;;;;;;;;;4217109;28;998;-62
2022/01/02 01:08:29;;;;;;;;;;;;;;;;;;4222924;28;999;-62
2022/01/02 01:10:49;;;;;;;;;;;;;;;;;;4236317;28;868;-62
2022/01/02 01:13:09;;;;;;;;;;;;;;;;;;4206968;28;1901;-62
2022/01/02 01:15:30;;;;;;;;;;;;;;;;;;4222397;28;1026;-62
2022/01/02 01:17:52;;;;;;;;;;;;;;;;;;4219569;28;1360;-62
2022/01/02 01:20:14;;;;;;;;;;;;;;;;;;4216688;28;983;-63
2022/01/02 01:22:34;;;;;;;;;;;;;;;;;;4233576;28;962;-62
2022/01/02 01:24:54;;;;;;;;;;;;;;;;;;4204635;28;1091;-63
2022/01/02 01:27:15;;;;;;;;;;;;;;;;;;4204654;28;1008;-62
2022/01/02 01:29:35;;;;;;;;;;;;;;;;;;4205483;28;996;-62
2022/01/02 01:31:58;;;;;;;;;;;;;;;;;;4204372;28;1142;-62
2022/01/02 01:34:18;;;;;;;;;;;;;;;;;;4205218;28;1902;-62
2022/01/02 01:36:39;;;;;;;;;;;;;;;;;;4204438;28;1526;-62
2022/01/02 01:39:00;;;;;;;;;;;;;;;;;;4204806;28;1002;-62
2022/01/02 01:41:20;;;;;;;;;;;;;;;;;;4205310;28;1169;-62
2022/01/02 01:43:53;;;;;;;;;;;;;;;;;;4204197;28;938;-62
2022/01/02 01:46:14;;;;;;;;;;;;;;;;;;4204364;28;1138;-62
2022/01/02 01:48:34;;;;;;;;;;;;;;;;;;4205260;28;1000;-62
2022/01/02 01:50:54;;;;;;;;;;;;;;;;;;4204553;28;934;-62
2022/01/02 01:53:16;;;;;;;;;;;;;;;;;;4204440;28;1930;-62
2022/01/02 01:55:37;;;;;;;;;;;;;;;;;;4204394;28;1052;-62
2022/01/02 01:57:57;;;;;;;;;;;;;;;;;;4204788;28;852;-63
2022/01/02 02:03:46;;;;;;;;;;;;;;;;;;4217484;28;1185;-62
2022/01/02 02:06:07;;;;;;;;;;;;;;;;;;4203082;28;1078;-63
2022/01/02 02:08:27;;;;;;;;;;;;;;;;;;4211409;28;2010;-63
2022/01/02 02:10:54;;;;;;;;;;;;;;;;;;4220123;28;1431;-62
2022/01/02 02:13:15;;;;;;;;;;;;;;;;;;4220099;28;1975;-62
2022/01/02 02:15:41;;;;;;;;;;;;;;;;;;4220028;28;1217;-62
2022/01/02 02:18:02;;;;;;;;;;;;;;;;;;4220100;28;1297;-62
2022/01/02 02:20:23;;;;;;;;;;;;;;;;;;4220618;28;1372;-63
2022/01/02 02:22:45;;;;;;;;;;;;;;;;;;4220292;28;1185;-63
2022/01/02 02:25:05;;;;;;;;;;;;;;;;;;4221093;28;1561;-63
2022/01/02 02:27:26;;;;;;;;;;;;;;;;;;4203948;28;951;-62
2022/01/02 02:29:46;;;;;;;;;;;;;;;;;;4233180;28;836;-62
2022/01/02 02:32:11;;;;;;;;;;;;;;;;;;4247311;27;1187;-62
2022/01/02 02:34:32;;;;;;;;;;;;;;;;;;4221385;28;1906;-62
2022/01/02 02:36:53;;;;;;;;;;;;;;;;;;4222152;28;987;-62
2022/01/02 02:39:13;;;;;;;;;;;;;;;;;;4220809;28;917;-63
2022/01/02 02:41:35;;;;;;;;;;;;;;;;;;4221210;28;855;-62
2022/01/02 02:44:02;;;;;;;;;;;;;;;;;;4220585;28;927;-64
2022/01/02 02:49:06;;;;;;;;;;;;;;;;;;4220542;28;1329;-62
2022/01/02 02:51:32;;;;;;;;;;;;;;;;;;4220276;28;999;-62
2022/01/02 02:53:53;;;;;;;;;;;;;;;;;;4220363;28;1955;-63
2022/01/02 02:56:18;;;;;;;;;;;;;;;;;;4218853;28;943;-62
2022/01/02 02:58:42;;;;;;;;;;;;;;;;;;4219919;28;930;-62
2022/01/02 03:01:03;;;;;;;;;;;;;;;;;;4220504;28;898;-62
2022/01/02 03:03:25;;;;;;;;;;;;;;;;;;4220202;28;924;-63
2022/01/02 03:05:46;;;;;;;;;;;;;;;;;;4220476;28;1093;-62
2022/01/02 03:08:06;;;;;;;;;;;;;;;;;;4232577;27;1032;-62
2022/01/02 03:10:27;;;;;;;;;;;;;;;;;;4231599;28;1181;-63
2022/01/02 03:12:47;;;;;;;;;;;;;;;;;;4204020;28;1239;-62
2022/01/02 03:15:08;;;;;;;;;;;;;;;;;;4204253;28;826;-62
2022/01/02 03:17:28;;;;;;;;;;;;;;;;;;4231515;28;1291;-62
2022/01/02 03:19:49;;;;;;;;;;;;;;;;;;4203938;28;1001;-62
2022/01/02 03:22:13;;;;;;;;;;;;;;;;;;4231738;28;930;-63
2022/01/02 03:24:34;;;;;;;;;;;;;;;;;;4231242;28;1041;-62
2022/01/02 03:26:54;;;;;;;;;;;;;;;;;;4203995;28;988;-62
2022/01/02 03:29:15;;;;;;;;;;;;;;;;;;4230413;28;977;-62
2022/01/02 03:31:36;;;;;;;;;;;;;;;;;;4231119;28;1172;-63
2022/01/02 03:33:56;;;;;;;;;;;;;;;;;;4230855;28;1984;-62
2022/01/02 03:36:18;;;;;;;;;;;;;;;;;;4231406;28;1042;-62
2022/01/02 03:38:39;;;;;;;;;;;;;;;;;;4231343;28;899;-62
2022/01/02 03:40:59;;;;;;;;;;;;;;;;;;4231185;28;1092;-62
2022/01/02 03:43:20;;;;;;;;;;;;;;;;;;4231214;28;982;-62
2022/01/02 03:45:40;;;;;;;;;;;;;;;;;;4232307;27;1662;-62
2022/01/02 03:48:01;;;;;;;;;;;;;;;;;;4221122;28;826;-62
2022/01/02 03:50:21;;;;;;;;;;;;;;;;;;4221296;28;984;-62
2022/01/02 03:52:41;;;;;;;;;;;;;;;;;;4221725;28;868;-63
2022/01/02 03:55:03;;;;;;;;;;;;;;;;;;4220782;28;1902;-62
2022/01/02 03:57:24;;;;;;;;;;;;;;;;;;4250187;27;899;-62
2022/01/02 03:59:44;;;;;;;;;;;;;;;;;;4220654;28;1038;-62
2022/01/02 04:02:05;;;;;;;;;;;;;;;;;;4221213;28;1339;-62
2022/01/02 04:04:27;;;;;;;;;;;;;;;;;;4220771;28;1090;-62
2022/01/02 04:06:47;;;;;;;;;;;;;;;;;;4222017;28;1016;-62
2022/01/02 04:09:08;;;;;;;;;;;;;;;;;;4221103;28;878;-62
2022/01/02 04:11:29;;;;;;;;;;;;;;;;;;4221099;28;945;-62
2022/01/02 04:13:50;;;;;;;;;;;;;;;;;;4220485;28;1979;-62
2022/01/02 04:16:10;;;;;;;;;;;;;;;;;;4220904;28;1192;-62
2022/01/02 04:18:31;;;;;;;;;;;;;;;;;;4206657;28;987;-62
2022/01/02 04:20:51;;;;;;;;;;;;;;;;;;4206531;28;1044;-62
2022/01/02 04:23:13;;;;;;;;;;;;;;;;;;4235361;28;972;-62
2022/01/02 04:25:33;;;;;;;;;;;;;;;;;;4206698;28;1037;-63
2022/01/02 04:27:54;;;;;;;;;;;;;;;;;;4206837;28;860;-62
2022/01/02 04:30:15;;;;;;;;;;;;;;;;;;4206241;28;929;-62
2022/01/02 04:32:36;;;;;;;;;;;;;;;;;;4206178;28;1008;-62
2022/01/02 04:34:56;;;;;;;;;;;;;;;;;;4206060;28;1914;-62
2022/01/02 04:37:17;;;;;;;;;;;;;;;;;;4206678;28;900;-62
2022/01/02 04:39:37;;;;;;;;;;;;;;;;;;4221828;28;1073;-62
2022/01/02 04:41:57;;;;;;;;;;;;;;;;;;4224310;28;1024;-62
2022/01/02 04:44:18;;;;;;;;;;;;;;;;;;4237881;28;943;-62
2022/01/02 04:46:39;;;;;;;;;;;;;;;;;;4208447;28;1042;-62
2022/01/02 04:49:00;;;;;;;;;;;;;;;;;;4208669;28;1109;-63
2022/01/02 04:51:20;;;;;;;;;;;;;;;;;;4224061;28;1004;-62
2022/01/02 04:53:47;;;;;;;;;;;;;;;;;;4208501;28;1976;-62
2022/01/02 04:56:07;;;;;;;;;;;;;;;;;;4209106;28;935;-62
2022/01/02 04:58:28;;;;;;;;;;;;;;;;;;4237457;28;978;-62
2022/01/02 05:00:48;;;;;;;;;;;;;;;;;;4208077;28;930;-63
2022/01/02 05:03:08;;;;;;;;;;;;;;;;;;4206102;28;2027;-63
2022/01/02 05:05:29;;;;;;;;;;;;;;;;;;4208368;28;1037;-63
2022/01/02 05:07:50;;;;;;;;;;;;;;;;;;4203824;28;845;-67
2022/01/02 05:10:11;;;;;;;;;;;;;;;;;;4191500;28;1010;-63
2022/01/02 05:12:31;;;;;;;;;;;;;;;;;;4191596;28;1041;-63
2022/01/02 05:14:52;;;;;;;;;;;;;;;;;;4191875;28;1913;-63
2022/01/02 05:17:12;;;;;;;;;;;;;;;;;;4198462;28;1097;-62
2022/01/02 05:19:33;;;;;;;;;;;;;;;;;;4206838;28;1009;-63
2022/01/02 05:21:53;;;;;;;;;;;;;;;;;;4206918;28;955;-64
2022/01/02 05:24:13;;;;;;;;;;;;;;;;;;4234624;28;968;-63
2022/01/02 05:26:35;;;;;;;;;;;;;;;;;;4234563;28;1017;-63
2022/01/02 05:28:56;;;;;;;;;;;;;;;;;;4206593;28;1006;-63
2022/01/02 05:31:16;;;;;;;;;;;;;;;;;;4234450;28;1044;-63
2022/01/02 05:33:37;;;;;;;;;;;;;;;;;;4234307;28;1311;-62
2022/01/02 05:35:58;;;;;;;;;;;;;;;;;;4234422;28;1046;-63
2022/01/02 05:38:19;;;;;;;;;;;;;;;;;;4206548;28;1028;-63
2022/01/02 05:40:40;;;;;;;;;;;;;;;;;;4234012;28;1173;-62
2022/01/02 05:43:01;;;;;;;;;;;;;;;;;;4234312;28;954;-63
2022/01/02 05:45:21;;;;;;;;;;;;;;;;;;4206452;28;1088;-63
2022/01/02 05:47:42;;;;;;;;;;;;;;;;;;4233916;28;1037;-63
2022/01/02 05:50:02;;;;;;;;;;;;;;;;;;4233816;28;965;-63
2022/01/02 05:52:22;;;;;;;;;;;;;;;;;;4233484;28;1026;-62
2022/01/02 05:54:43;;;;;;;;;;;;;;;;;;4233991;28;1978;-62
2022/01/02 05:57:03;;;;;;;;;;;;;;;;;;4206427;28;1148;-63
2022/01/02 05:59:24;;;;;;;;;;;;;;;;;;4233930;28;834;-63
2022/01/02 06:01:46;;;;;;;;;;;;;;;;;;4233555;28;1096;-63
2022/01/02 06:04:07;;;;;;;;;;;;;;;;;;4206277;28;1155;-63
2022/01/02 06:06:27;;;;;;;;;;;;;;;;;;4233969;28;916;-63
2022/01/02 06:08:48;;;;;;;;;;;;;;;;;;4233781;28;1014;-63
2022/01/02 06:11:08;;;;;;;;;;;;;;;;;;4206176;28;1059;-64
2022/01/02 06:13:29;;;;;;;;;;;;;;;;;;4233752;28;1279;-63
2022/01/02 06:15:50;;;;;;;;;;;;;;;;;;4233427;28;1905;-63
2022/01/02 06:18:10;;;;;;;;;;;;;;;;;;4206039;28;897;-63
2022/01/02 06:20:30;;;;;;;;;;;;;;;;;;4206639;28;990;-63
2022/01/02 06:22:53;;;;;;;;;;;;;;;;;;4206108;28;1117;-63
2022/01/02 06:25:13;;;;;;;;;;;;;;;;;;4206044;28;1041;-63
2022/01/02 06:27:35;;;;;;;;;;;;;;;;;;4233208;28;946;-63
2022/01/02 06:29:56;;;;;;;;;;;;;;;;;;4233283;28;1475;-63
2022/01/02 06:32:16;;;;;;;;;;;;;;;;;;4205817;28;932;-63
2022/01/02 06:34:37;;;;;;;;;;;;;;;;;;4233564;28;1996;-64
2022/01/02 06:36:58;;;;;;;;;;;;;;;;;;4205766;28;957;-63
2022/01/02 06:39:19;;;;;;;;;;;;;;;;;;4205749;28;1013;-63
2022/01/02 06:41:39;;;;;;;;;;;;;;;;;;4233456;28;860;-63
2022/01/02 06:44:00;;;;;;;;;;;;;;;;;;4233451;28;1089;-63
2022/01/02 06:46:21;;;;;;;;;;;;;;;;;;4233398;28;1027;-63
2022/01/02 06:48:41;;;;;;;;;;;;;;;;;;4205600;28;914;-64
2022/01/02 06:51:01;;;;;;;;;;;;;;;;;;4233286;28;961;-63
2022/01/02 06:53:22;;;;;;;;;;;;;;;;;;4232791;28;1238;-63
2022/01/02 06:55:42;;;;;;;;;;;;;;;;;;4232822;28;1910;-64
2022/01/02 06:58:05;;;;;;;;;;;;;;;;;;4232996;28;987;-63
2022/01/02 07:00:26;;;;;;;;;;;;;;;;;;4232905;28;1148;-63
2022/01/02 07:02:46;;;;;;;;;;;;;;;;;;4233119;28;896;-63
2022/01/02 07:05:07;;;;;;;;;;;;;;;;;;4218303;28;1292;-63
2022/01/02 07:07:27;;;;;;;;;;;;;;;;;;4233166;28;840;-63
2022/01/02 07:09:48;;;;;;;;;;;;;;;;;;4233153;28;1033;-63
2022/01/02 07:12:08;;;;;;;;;;;;;;;;;;4205425;28;1204;-63
2022/01/02 07:14:29;;;;;;;;;;;;;;;;;;4205370;28;1136;-63
2022/01/02 07:16:50;;;;;;;;;;;;;;;;;;4205262;28;1324;-63
2022/01/02 07:19:10;;;;;;;;;;;;;;;;;;4205047;28;1021;-63
2022/01/02 07:21:31;;;;;;;;;;;;;;;;;;4205329;28;833;-63
2022/01/02 07:23:52;;;;;;;;;;;;;;;;;;4205234;28;1015;-63
2022/01/02 07:26:13;;;;;;;;;;;;;;;;;;4204853;28;988;-63
2022/01/02 07:28:33;;;;;;;;;;;;;;;;;;4204827;28;1121;-63
2022/01/02 07:30:54;;;;;;;;;;;;;;;;;;4189464;28;939;-63
2022/01/02 07:33:15;;;;;;;;;;;;;;;;;;4205044;28;1280;-63
2022/01/02 07:35:35;;;;;;;;;;;;;;;;;;4205022;28;1909;-63
2022/01/02 07:37:55;;;;;;;;;;;;;;;;;;4204745;28;977;-63
2022/01/02 07:40:17;;;;;;;;;;;;;;;;;;4204611;28;1361;-64
2022/01/02 07:42:38;;;;;;;;;;;;;;;;;;4205020;28;881;-63
2022/01/02 07:45:07;;;;;;;;;;;;;;;;;;4189836;28;885;-63
2022/01/02 07:47:28;;;;;;;;;;;;;;;;;;4204742;28;946;-64
2022/01/02 07:49:48;;;;;;;;;;;;;;;;;;4206068;28;1095;-63
2022/01/02 07:52:08;;;;;;;;;;;;;;;;;;4221395;28;1021;-63
2022/01/02 07:54:29;;;;;;;;;;;;;;;;;;4221472;28;834;-63
2022/01/02 07:56:49;;;;;;;;;;;;;;;;;;4221074;28;1033;-63
2022/01/02 07:59:10;;;;;;;;;;;;;;;;;;4221466;28;880;-63
2022/01/02 08:01:30;;;;;;;;;;;;;;;;;;4221291;28;976;-64
2022/01/02 08:03:50;;;;;;;;;;;;;;;;;;4220612;28;1832;-64
2022/01/02 08:06:10;;;;;;;;;;;;;;;;;;4219923;28;1419;-63
2022/01/02 08:08:31;;;;;;;;;;;;;;;;;;4221257;28;829;-63
2022/01/02 08:10:51;;;;;;;;;;;;;;;;;;4220888;28;1422;-63
2022/01/02 08:13:11;;;;;;;;;;;;;;;;;;4220984;28;942;-63
2022/01/02 08:15:32;;;;;;;;;;;;;;;;;;4222249;28;2004;-63
2022/01/02 08:17:52;;;;;;;;;;;;;;;;;;4221660;28;1088;-64
2022/01/02 08:20:13;;;;;;;;;;;;;;;;;;4222415;28;1032;-63
2022/01/02 08:22:33;;;;;;;;;;;;;;;;;;4223128;28;1749;-64
2022/01/02 08:24:54;;;;;;;;;;;;;;;;;;4222447;28;994;-63
2022/01/02 08:27:14;;;;;;;;;;;;;;;;;;4224068;28;1162;-63
2022/01/02 08:29:34;;;;;;;;;;;;;;;;;;4224092;28;981;-63
2022/01/02 08:31:54;;;;;;;;;;;;;;;;;;4223821;28;957;-64
2022/01/02 08:34:15;;;;;;;;;;;;;;;;;;4223962;28;1113;-64
2022/01/02 08:36:35;;;;;;;;;;;;;;;;;;4207097;28;1902;-63
2022/01/02 08:38:55;;;;;;;;;;;;;;;;;;4207009;28;1082;-63
2022/01/02 08:41:17;;;;;;;;;;;;;;;;;;4207163;28;830;-63
2022/01/02 08:43:37;;;;;;;;;;;;;;;;;;4206903;28;1190;-63
2022/01/02 08:45:58;;;;;;;;;;;;;;;;;;4206800;28;986;-64
2022/01/02 08:48:18;;;;;;;;;;;;;;;;;;4207041;28;826;-64
2022/01/02 08:50:38;;;;;;;;;;;;;;;;;;4216206;28;1316;-63
2022/01/02 08:52:58;;;;;;;;;;;;;;;;;;4223664;28;1027;-64
2022/01/02 08:55:19;;;;;;;;;;;;;;;;;;4223436;28;1909;-61
2022/01/02 08:57:39;;;;;;;;;;;;;;;;;;4223381;28;1257;-63
2022/01/02 09:00:00;;;;;;;;;;;;;;;;;;4223742;28;1427;-63
2022/01/02 09:02:20;;;;;;;;;;;;;;;;;;4223518;28;1004;-63
2022/01/02 09:04:40;;;;;;;;;;;;;;;;;;4223341;28;1161;-62
2022/01/02 09:07:01;;;;;;;;;;;;;;;;;;4223658;28;1029;-63
2022/01/02 09:09:21;;;;;;;;;;;;;;;;;;4223380;28;1169;-64
2022/01/02 09:11:42;;;;;;;;;;;;;;;;;;4223304;28;1206;-64
2022/01/02 09:14:02;;;;;;;;;;;;;;;;;;4223477;28;930;-63
2022/01/02 09:16:23;;;;;;;;;;;;;;;;;;4223268;28;1913;-64
2022/01/02 09:18:43;;;;;;;;;;;;;;;;;;4223484;28;910;-64
2022/01/02 09:21:04;;;;;;;;;;;;;;;;;;4222907;28;1220;-62
2022/01/02 09:23:25;;;;;;;;;;;;;;;;;;4223412;28;874;-63
2022/01/02 09:25:45;;;;;;;;;;;;;;;;;;4222980;28;1108;-63
2022/01/02 09:28:06;;;;;;;;;;;;;;;;;;4222509;28;922;-62
2022/01/02 09:30:26;;;;;;;;;;;;;;;;;;4223095;28;976;-62
2022/01/02 09:32:47;;;;;;;;;;;;;;;;;;4223224;28;926;-62
2022/01/02 09:35:07;;;;;;;;;;;;;;;;;;4223037;28;1154;-62
2022/01/02 09:37:27;;;;;;;;;;;;;;;;;;4222733;28;1909;-63
2022/01/02 09:39:53;;;;;;;;;;;;;;;;;;4221928;28;969;-62
2022/01/02 09:42:13;;;;;;;;;;;;;;;;;;4222892;28;1065;-63
2022/01/02 09:44:34;;;;;;;;;;;;;;;;;;4206323;28;946;-62
2022/01/02 09:46:54;;;;;;;;;;;;;;;;;;4205980;28;1025;-63
2022/01/02 09:49:14;;;;;;;;;;;;;;;;;;4206211;28;970;-62
2022/01/02 09:51:34;;;;;;;;;;;;;;;;;;4206285;28;930;-61
2022/01/02 09:53:54;;;;;;;;;;;;;;;;;;4206099;28;1256;-61
2022/01/02 09:56:15;;;;;;;;;;;;;;;;;;4205876;28;1985;-62
2022/01/02 09:58:35;;;;;;;;;;;;;;;;;;4206675;28;2054;-59
2022/01/02 10:01:04;;;;;;;;;;;;;;;;;;4214930;28;1569;-59
2022/01/02 10:03:28;;;;;;;;;;;;;;;;;;4222804;28;1059;-59
2022/01/02 10:05:50;;;;;;;;;;;;;;;;;;4222287;28;1178;-59
2022/01/02 10:08:37;;;;;;;;;;;;;;;;;;4222576;28;920;-60
2022/01/02 10:10:58;;;;;;;;;;;;;;;;;;4222511;28;1155;-59
2022/01/02 10:13:18;;;;;;;;;;;;;;;;;;4222582;28;989;-61
2022/01/02 10:15:38;;;;;;;;;;;;;;;;;;4223147;28;932;-61
2022/01/02 10:17:58;;;;;;;;;;;;;;;;;;4223005;28;1447;-60
2022/01/02 10:20:18;;;;;;;;;;;;;;;;;;4223101;28;964;-60
2022/01/02 10:22:39;;;;;;;;;;;;;;;;;;4223171;28;896;-60
2022/01/02 10:24:59;;;;;;;;;;;;;;;;;;4222772;28;1231;-60
2022/01/02 10:27:21;;;;;;;;;;;;;;;;;;4223153;28;1100;-60
2022/01/02 10:29:41;;;;;;;;;;;;;;;;;;4222741;28;1011;-60
2022/01/02 10:32:02;;;;;;;;;;;;;;;;;;4222497;28;1281;-60
2022/01/02 10:34:22;;;;;;;;;;;;;;;;;;4222574;28;1000;-60
2022/01/02 10:36:45;;;;;;;;;;;;;;;;;;4222589;28;1910;-60
2022/01/02 10:39:05;;;;;;;;;;;;;;;;;;4221613;28;1692;-61
2022/01/02 10:41:25;;;;;;;;;;;;;;;;;;4222851;28;1096;-60
2022/01/02 10:43:45;;;;;;;;;;;;;;;;;;4222744;28;1166;-60
2022/01/02 10:46:05;;;;;;;;;;;;;;;;;;4222620;28;945;-60
2022/01/02 10:48:25;;;;;;;;;;;;;;;;;;4222785;28;846;-60
2022/01/02 10:50:46;;;;;;;;;;;;;;;;;;4222915;28;949;-60
2022/01/02 10:53:06;;;;;;;;;;;;;;;;;;4221520;28;1133;-60
2022/01/02 10:55:27;;;;;;;;;;;;;;;;;;4219233;28;1016;-60
2022/01/02 10:57:49;;;;;;;;;;;;;;;;;;4205766;28;1985;-60
2022/01/02 11:00:09;;;;;;;;;;;;;;;;;;4205748;28;1275;-60
2022/01/02 11:02:29;;;;;;;;;;;;;;;;;;4206048;28;1178;-60
2022/01/02 11:04:50;;;;;;;;;;;;;;;;;;4205860;28;1004;-60
2022/01/02 11:07:10;;;;;;;;;;;;;;;;;;4205595;28;1160;-60
2022/01/02 11:09:30;;;;;;;;;;;;;;;;;;4205689;28;932;-60
2022/01/02 11:11:50;;;;;;;;;;;;;;;;;;4205556;28;969;-59
2022/01/02 11:14:10;;;;;;;;;;;;;;;;;;4205728;28;1107;-60
2022/01/02 11:16:34;;;;;;;;;;;;;;;;;;4205646;28;1991;-60
2022/01/02 11:18:54;;;;;;;;;;;;;;;;;;4215563;28;1117;-60
2022/01/02 11:21:14;;;;;;;;;;;;;;;;;;4222319;28;1007;-60
2022/01/02 11:23:34;;;;;;;;;;;;;;;;;;4221916;28;919;-61
2022/01/02 11:25:55;;;;;;;;;;;;;;;;;;4221896;28;1071;-60
2022/01/02 11:28:15;;;;;;;;;;;;;;;;;;4221855;28;951;-60
2022/01/02 11:30:35;;;;;;;;;;;;;;;;;;4221950;28;1105;-61
2022/01/02 11:32:56;;;;;;;;;;;;;;;;;;4221963;28;1096;-60
2022/01/02 11:35:16;;;;;;;;;;;;;;;;;;4221837;28;1172;-60
2022/01/02 11:37:36;;;;;;;;;;;;;;;;;;4221646;28;1909;-60
2022/01/02 11:39:57;;;;;;;;;;;;;;;;;;4221748;28;1109;-60
2022/01/02 11:42:17;;;;;;;;;;;;;;;;;;4214342;28;934;-60
2022/01/02 11:44:37;;;;;;;;;;;;;;;;;;4209013;28;1167;-60
2022/01/02 11:46:58;;;;;;;;;;;;;;;;;;4221688;28;1206;-59
2022/01/02 11:49:18;;;;;;;;;;;;;;;;;;4221597;28;863;-60
2022/01/02 11:51:38;;;;;;;;;;;;;;;;;;4221743;28;928;-60
2022/01/02 11:53:58;;;;;;;;;;;;;;;;;;4209533;28;2288;-60
2022/01/02 11:56:18;;;;;;;;;;;;;;;;;;4209995;28;2369;-60
2022/01/02 11:58:38;;;;;;;;;;;;;;;;;;4217227;28;1907;-60
2022/01/02 12:00:59;;;;;;;;;;;;;;;;;;4204899;28;1910;-60
2022/01/02 12:03:19;;;;;;;;;;;;;;;;;;4221385;28;906;-60
2022/01/02 12:05:39;;;;;;;;;;;;;;;;;;4221320;28;1216;-61
2022/01/02 12:08:00;;;;;;;;;;;;;;;;;;4221153;28;1033;-60
2022/01/02 12:10:21;;;;;;;;;;;;;;;;;;4221449;28;1343;-60
2022/01/02 12:12:42;;;;;;;;;;;;;;;;;;4221455;28;975;-60
2022/01/02 12:15:02;;;;;;;;;;;;;;;;;;4222067;28;1004;-60
2022/01/02 12:17:25;;;;;;;;;;;;;;;;;;4221655;28;2319;-60
2022/01/02 12:19:45;;;;;;;;;;;;;;;;;;4222157;28;1002;-60
2022/01/02 12:22:05;;;;;;;;;;;;;;;;;;4221635;28;985;-60
2022/01/02 12:24:26;;;;;;;;;;;;;;;;;;4222933;28;1003;-60
2022/01/02 12:26:46;;;;;;;;;;;;;;;;;;4206621;28;992;-60
2022/01/02 12:29:07;;;;;;;;;;;;;;;;;;4222578;28;1140;-60
2022/01/02 12:31:28;;;;;;;;;;;;;;;;;;4221822;28;1117;-60
2022/01/02 12:33:48;;;;;;;;;;;;;;;;;;4221208;28;1134;-62
2022/01/02 12:36:08;;;;;;;;;;;;;;;;;;4221419;28;936;-62
2022/01/02 12:38:29;;;;;;;;;;;;;;;;;;4220785;28;1981;-62
2022/01/02 12:40:49;;;;;;;;;;;;;;;;;;4220983;28;1091;-62
2022/01/02 12:43:10;;;;;;;;;;;;;;;;;;4221145;28;986;-61
2022/01/02 12:45:30;;;;;;;;;;;;;;;;;;4220488;28;1167;-62
2022/01/02 12:47:51;;;;;;;;;;;;;;;;;;4221069;28;922;-61
2022/01/02 12:50:12;;;;;;;;;;;;;;;;;;4220857;28;1421;-62
2022/01/02 12:52:32;;;;;;;;;;;;;;;;;;4220586;28;1024;-61
2022/01/02 12:54:54;;;;;;;;;;;;;;;;;;4221166;28;964;-60
2022/01/02 12:57:15;;;;;;;;;;;;;;;;;;4203617;28;1906;-62
2022/01/02 12:59:35;;;;;;;;;;;;;;;;;;4203628;28;927;-63
2022/01/02 13:01:56;;;;;;;;;;;;;;;;;;4205401;28;975;-62
2022/01/02 13:04:17;;;;;;;;;;;;;;;;;;4206344;28;1065;-62
2022/01/02 13:06:37;;;;;;;;;;;;;;;;;;4206471;28;1219;-60
2022/01/02 13:08:58;;;;;;;;;;;;;;;;;;4206813;28;828;-62
2022/01/02 13:11:20;;;;;;;;;;;;;;;;;;4216772;28;1346;-62
2022/01/02 13:13:41;;;;;;;;;;;;;;;;;;4222368;28;854;-62
2022/01/02 13:16:01;;;;;;;;;;;;;;;;;;4222509;28;1194;-62
2022/01/02 13:18:22;;;;;;;;;;;;;;;;;;4222839;28;1914;-62
2022/01/02 13:20:43;;;;;;;;;;;;;;;;;;4222699;28;941;-62
2022/01/02 13:23:03;;;;;;;;;;;;;;;;;;4222910;28;992;-61
2022/01/02 13:25:23;;;;;;;;;;;;;;;;;;4222300;28;1114;-62
2022/01/02 13:27:44;;;;;;;;;;;;;;;;;;4222754;28;1171;-62
2022/01/02 13:30:04;;;;;;;;;;;;;;;;;;4222675;28;960;-62
2022/01/02 13:32:24;;;;;;;;;;;;;;;;;;4223491;28;923;-62
2022/01/02 13:34:44;;;;;;;;;;;;;;;;;;4222781;28;994;-62
2022/01/02 13:37:05;;;;;;;;;;;;;;;;;;4222777;28;1909;-62
2022/01/02 13:39:25;;;;;;;;;;;;;;;;;;4223065;28;928;-62
2022/01/02 13:41:46;;;;;;;;;;;;;;;;;;4207157;28;1098;-62
2022/01/02 13:44:06;;;;;;;;;;;;;;;;;;4222606;28;1319;-62
2022/01/02 13:46:28;;;;;;;;;;;;;;;;;;4222927;28;985;-62
2022/01/02 13:48:49;;;;;;;;;;;;;;;;;;4222637;28;1060;-62
2022/01/02 13:51:09;;;;;;;;;;;;;;;;;;4222239;28;1224;-62
2022/01/02 13:53:29;;;;;;;;;;;;;;;;;;4222921;28;988;-63
2022/01/02 13:55:50;;;;;;;;;;;;;;;;;;4222639;28;1258;-64
2022/01/02 13:58:10;;;;;;;;;;;;;;;;;;4222365;28;2011;-64
2022/01/02 14:00:30;;;;;;;;;;;;;;;;;;4222532;28;1100;-65
2022/01/02 14:02:53;;;;;;;;;;;;;;;;;;4222868;28;909;-65
2022/01/02 14:05:15;;;;;;;;;;;;;;;;;;4222747;28;834;-64
2022/01/02 14:07:36;;;;;;;;;;;;;;;;;;4222082;28;974;-64
2022/01/02 14:09:57;;;;;;;;;;;;;;;;;;4222248;28;1550;-64
2022/01/02 14:12:20;;;;;;;;;;;;;;;;;;4221808;28;1010;-64
2022/01/02 14:14:49;;;;;;;;;;;;;;;;;;4222812;28;1008;-64
2022/01/02 14:17:30;;;;;;;;;;;;;;;;;;4222639;28;1079;-63
2022/01/02 14:19:51;;;;;;;;;;;;;;;;;;4222531;28;948;-65
2022/01/02 14:22:11;;;;;;;;;;;;;;;;;;4221971;28;807;-65
2022/01/02 14:24:33;;;;;;;;;;;;;;;;;;4221737;28;1112;-65
2022/01/02 14:26:53;;;;;;;;;;;;;;;;;;4221922;28;1140;-66
2022/01/02 14:29:13;;;;;;;;;;;;;;;;;;4222425;28;1059;-66
2022/01/02 14:31:34;;;;;;;;;;;;;;;;;;4221945;28;1758;-66
2022/01/02 14:33:54;;;;;;;;;;;;;;;;;;4222462;28;969;-67
2022/01/02 14:36:14;;;;;;;;;;;;;;;;;;4222085;28;1149;-63
2022/01/02 14:38:35;;;;;;;;;;;;;;;;;;4215724;28;2178;-64
2022/01/02 14:40:56;;;;;;;;;;;;;;;;;;4213553;28;1475;-64
2022/01/02 14:43:16;;;;;;;;;;;;;;;;;;4222401;28;1231;-66
2022/01/02 14:45:37;;;;;;;;;;;;;;;;;;4222064;28;1306;-62
2022/01/02 14:47:57;;;;;;;;;;;;;;;;;;4222015;28;1525;-63
2022/01/02 14:50:17;;;;;;;;;;;;;;;;;;4221930;28;1503;-63
2022/01/02 14:52:37;;;;;;;;;;;;;;;;;;4222127;28;1096;-63
2022/01/02 14:54:58;;;;;;;;;;;;;;;;;;4221345;28;1516;-63
2022/01/02 14:57:18;;;;;;;;;;;;;;;;;;4221692;28;1135;-61
2022/01/02 14:59:38;;;;;;;;;;;;;;;;;;4222017;28;1079;-62
2022/01/02 15:01:59;;;;;;;;;;;;;;;;;;4220518;28;982;-61
2022/01/02 15:04:19;;;;;;;;;;;;;;;;;;4222409;28;845;-61
2022/01/02 15:06:43;;;;;;;;;;;;;;;;;;4221671;28;986;-59
2022/01/02 15:09:04;;;;;;;;;;;;;;;;;;4221906;28;1185;-60
2022/01/02 15:11:24;;;;;;;;;;;;;;;;;;4221442;28;1078;-59
2022/01/02 15:13:44;;;;;;;;;;;;;;;;;;4221519;28;1137;-59
2022/01/02 15:16:05;;;;;;;;;;;;;;;;;;4220058;28;2349;-60
2022/01/02 15:18:25;;;;;;;;;;;;;;;;;;4204922;28;2005;-59
2022/01/02 15:20:46;;;;;;;;;;;;;;;;;;4205618;28;1101;-60
2022/01/02 15:23:06;;;;;;;;;;;;;;;;;;4204516;28;1133;-60
2022/01/02 15:25:28;;;;;;;;;;;;;;;;;;4206366;28;1992;-59
2022/01/02 15:27:48;;;;;;;;;;;;;;;;;;4204182;28;2349;-59
2022/01/02 15:30:09;;;;;;;;;;;;;;;;;;4204439;28;1215;-60
2022/01/02 15:32:33;;;;;;;;;;;;;;;;;;4207129;28;1565;-60
2022/01/02 15:34:53;;;;;;;;;;;;;;;;;;4204852;28;1861;-60
2022/01/02 15:37:13;;;;;;;;;;;;;;;;;;4204298;28;2161;-60
2022/01/02 15:39:34;;;;;;;;;;;;;;;;;;4217177;28;1913;-60
2022/01/02 15:41:54;;;;;;;;;;;;;;;;;;4203814;28;1363;-60
2022/01/02 15:44:14;;;;;;;;;;;;;;;;;;4217950;28;1195;-60
2022/01/02 15:46:34;;;;;;;;;;;;;;;;;;4218523;28;1967;-60
2022/01/02 15:48:56;;;;;;;;;;;;;;;;;;4218849;28;1943;-60
2022/01/02 15:51:16;;;;;;;;;;;;;;;;;;4220943;28;1990;-60
2022/01/02 15:53:37;;;;;;;;;;;;;;;;;;4220709;28;1844;-60
2022/01/02 15:55:57;;;;;;;;;;;;;;;;;;4220105;28;1851;-60
2022/01/02 15:58:17;;;;;;;;;;;;;;;;;;4219311;28;1979;-61
2022/01/02 16:00:38;;;;;;;;;;;;;;;;;;4219324;28;1820;-61
2022/01/02 16:02:58;;;;;;;;;;;;;;;;;;4219576;28;1902;-60
2022/01/02 16:05:18;;;;;;;;;;;;;;;;;;4219958;28;932;-59
2022/01/02 16:07:39;;;;;;;;;;;;;;;;;;4217379;28;1654;-60
2022/01/02 16:09:59;;;;;;;;;;;;;;;;;;4218554;28;1934;-59
2022/01/02 16:12:19;;;;;;;;;;;;;;;;;;4218756;28;1468;-60
2022/01/02 16:14:39;;;;;;;;;;;;;;;;;;4219402;28;1371;-60
2022/01/02 16:17:00;;;;;;;;;;;;;;;;;;4219045;28;1574;-60
2022/01/02 16:19:20;;;;;;;;;;;;;;;;;;4219114;28;1976;-60
2022/01/02 16:21:40;;;;;;;;;;;;;;;;;;4219827;28;996;-60
2022/01/02 16:24:01;;;;;;;;;;;;;;;;;;4219664;28;1172;-60
2022/01/02 16:26:21;;;;;;;;;;;;;;;;;;4218998;28;1400;-60
2022/01/02 16:28:42;;;;;;;;;;;;;;;;;;4219316;28;957;-60
2022/01/02 16:31:04;;;;;;;;;;;;;;;;;;4219092;28;996;-59